Time;durP1;ratioP1;P1;durP2;ratioP2;P2;SDS_P1;SDS_P2;PMS_P1;PMS_P2;Temp;Humidity;BMP_temperature;BMP_pressure;BME280_temperature;BME280_humidity;BME280_pressure;Samples;Min_cycle;Max_cycle;Signal;HPM_P1;HPM_P2
2023/01/12 00:02:02;;;;;;;;;;;8.30;99.90;;;;;;5032505;28;20011;-71
2023/01/12 00:04:29;;;;;;;;;;;8.10;99.90;;;;;;5034439;28;20284;-71
2023/01/12 00:06:56;;;;;;;;;;;7.90;99.90;;;;;;5034626;28;19921;-71
2023/01/12 00:09:21;;;;;;;;;;;7.80;99.90;;;;;;5033725;28;19921;-71
2023/01/12 00:11:47;;;;;;;;;;;7.90;99.90;;;;;;5033753;28;20400;-70
2023/01/12 00:14:13;;;;;;;;;;;7.80;99.90;;;;;;5034733;28;19928;-70
2023/01/12 00:16:39;;;;;;;;;;;7.80;99.90;;;;;;5015126;28;20404;-70
2023/01/12 00:19:11;;;;;;;;;;;7.80;99.90;;;;;;5016693;28;19925;-71
2023/01/12 00:22:10;;;;;;;;;;;7.80;99.90;;;;;;5015484;28;19921;-70
2023/01/12 00:24:37;;;;;;;;;;;7.80;99.90;;;;;;5031536;28;19920;-71
2023/01/12 00:27:04;;;;;;;;;;;9.00;99.90;;;;;;5016535;28;20004;-71
2023/01/12 00:29:32;;;;;;;;;;;7.70;99.90;;;;;;5033874;28;19921;-71
2023/01/12 00:31:59;;;;;;;;;;;7.70;99.90;;;;;;5033333;28;20333;-71
2023/01/12 00:34:25;;;;;;;;;;;8.70;99.90;;;;;;5033845;28;19921;-72
2023/01/12 00:36:50;;;;;;;;;;;7.80;99.90;;;;;;5015423;28;19924;-72
2023/01/12 00:39:16;;;;;;;;;;;8.30;99.90;;;;;;5015947;28;20369;-72
2023/01/12 00:47:11;;;;;;;;;;;8.70;99.90;;;;;;5033900;28;19921;-70
2023/01/12 00:49:37;;;;;;;;;;;9.10;99.90;;;;;;5033526;28;19925;-70
2023/01/12 00:52:04;;;;;;;;;;;7.70;99.90;;;;;;5014878;28;19961;-71
2023/01/12 00:54:30;;;;;;;;;;;7.80;99.90;;;;;;5033558;28;19932;-71
2023/01/12 00:56:56;;;;;;;;;;;7.80;99.90;;;;;;5033760;28;19921;-71
2023/01/12 00:59:21;;;;;;;;;;;7.80;99.90;;;;;;5032496;28;19920;-71
2023/01/12 01:01:47;;;;;;;;;;;7.90;99.90;;;;;;5033220;28;19921;-71
2023/01/12 01:04:12;;;;;;;;;;;9.10;99.90;;;;;;5016036;28;19921;-71
2023/01/12 01:06:38;;;;;;;;;;;9.50;99.90;;;;;;5030364;28;20266;-71
2023/01/12 01:09:04;;;;;;;;;;;8.00;99.90;;;;;;5033787;28;19921;-71
2023/01/12 01:11:30;;;;;;;;;;;8.90;99.90;;;;;;5031709;28;20299;-71
2023/01/12 01:13:55;;;;;;;;;;;8.40;99.90;;;;;;5032975;28;19924;-71
2023/01/12 01:16:21;;;;;;;;;;;9.00;99.90;;;;;;5031887;28;19921;-71
2023/01/12 01:18:47;;;;;;;;;;;8.10;99.90;;;;;;5032456;28;19963;-71
2023/01/12 01:21:13;;;;;;;;;;;8.10;99.90;;;;;;5031991;28;19979;-71
2023/01/12 01:23:39;;;;;;;;;;;8.20;99.90;;;;;;5033172;28;19921;-71
2023/01/12 01:26:12;;;;;;;;;;;9.30;99.90;;;;;;5032691;28;19932;-71
2023/01/12 01:28:37;;;;;;;;;;;8.00;99.90;;;;;;5030748;28;20390;-70
2023/01/12 01:31:04;;;;;;;;;;;8.50;99.90;;;;;;5031991;28;19921;-70
2023/01/12 01:33:30;;;;;;;;;;;8.10;99.90;;;;;;5030565;28;19927;-70
2023/01/12 01:35:56;;;;;;;;;;;8.30;99.90;;;;;;5032694;28;19968;-71
2023/01/12 01:38:21;;;;;;;;;;;9.00;99.90;;;;;;5031306;28;20006;-71
2023/01/12 01:40:47;;;;;;;;;;;8.00;99.90;;;;;;5032291;28;19983;-71
2023/01/12 01:43:13;;;;;;;;;;;8.10;99.90;;;;;;5031685;28;20361;-71
2023/01/12 01:45:41;;;;;;;;;;;8.20;99.90;;;;;;5032661;28;19975;-71
2023/01/12 01:48:09;;;;;;;;;;;9.90;99.90;;;;;;5027991;28;20012;-71
2023/01/12 01:50:36;;;;;;;;;;;8.50;99.90;;;;;;5031115;28;20043;-71
2023/01/12 01:53:05;;;;;;;;;;;8.30;99.90;;;;;;5030996;28;19921;-71
2023/01/12 01:55:35;;;;;;;;;;;8.30;99.90;;;;;;5030219;28;20024;-70
2023/01/12 01:58:03;;;;;;;;;;;8.20;99.90;;;;;;5031226;28;19925;-70
2023/01/12 02:00:28;;;;;;;;;;;8.30;99.90;;;;;;5031076;28;19921;-70
2023/01/12 02:02:55;;;;;;;;;;;8.80;99.90;;;;;;5030153;28;20028;-70
2023/01/12 02:05:23;;;;;;;;;;;8.40;99.90;;;;;;5031805;28;19928;-70
2023/01/12 02:07:49;;;;;;;;;;;8.30;99.90;;;;;;5032667;28;19920;-70
2023/01/12 02:10:15;;;;;;;;;;;8.90;99.90;;;;;;5013744;28;20280;-71
2023/01/12 02:18:18;;;;;;;;;;;8.40;99.90;;;;;;5029136;28;19968;-70
2023/01/12 02:20:52;;;;;;;;;;;8.80;99.90;;;;;;5032365;28;19924;-70
2023/01/12 02:23:21;;;;;;;;;;;8.40;99.90;;;;;;5013043;28;19921;-70
2023/01/12 02:25:46;;;;;;;;;;;8.50;99.90;;;;;;5013805;28;19921;-71
2023/01/12 02:28:30;;;;;;;;;;;9.70;99.90;;;;;;5031841;28;19921;-70
2023/01/12 02:30:59;;;;;;;;;;;8.60;99.90;;;;;;5013621;28;20016;-71
2023/01/12 02:33:27;;;;;;;;;;;8.50;99.90;;;;;;5031556;28;19921;-71
2023/01/12 02:36:11;;;;;;;;;;;8.40;99.90;;;;;;5032077;28;19972;-71
2023/01/12 02:38:46;;;;;;;;;;;8.50;99.90;;;;;;5009874;28;19921;-71
2023/01/12 02:42:39;;;;;;;;;;;8.60;99.90;;;;;;5032061;28;20015;-71
2023/01/12 02:44:11;;;;;;;;;;;8.60;99.90;;;;;;5010175;28;19921;-71
2023/01/12 02:46:38;;;;;;;;;;;8.60;99.90;;;;;;5013530;28;20381;-71
2023/01/12 02:49:08;;;;;;;;;;;8.60;99.90;;;;;;5013571;28;19921;-70
2023/01/12 02:51:53;;;;;;;;;;;8.70;99.90;;;;;;5013426;28;19925;-70
2023/01/12 02:54:19;;;;;;;;;;;8.50;99.90;;;;;;5031559;28;19928;-71
2023/01/12 02:56:47;;;;;;;;;;;9.20;99.90;;;;;;5014131;28;19960;-71
2023/01/12 02:59:24;;;;;;;;;;;8.50;99.90;;;;;;5011632;28;19928;-71
2023/01/12 03:01:51;;;;;;;;;;;8.70;99.90;;;;;;5013863;28;20015;-71
2023/01/12 03:04:18;;;;;;;;;;;9.40;99.90;;;;;;5031135;28;20010;-71
2023/01/12 03:06:46;;;;;;;;;;;8.30;99.90;;;;;;5013477;28;19968;-71
2023/01/12 03:09:16;;;;;;;;;;;8.40;99.90;;;;;;5031550;28;19921;-71
2023/01/12 03:11:42;;;;;;;;;;;8.40;99.90;;;;;;5013369;28;19987;-71
2023/01/12 03:14:08;;;;;;;;;;;8.60;99.90;;;;;;5013791;28;19928;-71
2023/01/12 03:16:34;;;;;;;;;;;9.80;99.90;;;;;;5031374;28;19925;-71
2023/01/12 03:19:08;;;;;;;;;;;8.40;99.90;;;;;;5030550;28;19979;-71
2023/01/12 03:21:33;;;;;;;;;;;8.50;99.90;;;;;;5013638;28;19925;-71
2023/01/12 03:24:09;;;;;;;;;;;8.50;99.90;;;;;;5031552;28;20434;-71
2023/01/12 03:26:36;;;;;;;;;;;8.60;99.90;;;;;;5012939;28;20597;-71
2023/01/12 03:29:08;;;;;;;;;;;8.60;99.90;;;;;;5030930;28;19921;-71
2023/01/12 03:31:34;;;;;;;;;;;8.60;99.90;;;;;;5011161;28;19921;-71
2023/01/12 03:34:00;;;;;;;;;;;8.70;99.90;;;;;;5013090;28;19929;-71
2023/01/12 03:36:41;;;;;;;;;;;8.90;99.90;;;;;;5031245;28;20012;-71
2023/01/12 03:39:12;;;;;;;;;;;8.50;99.90;;;;;;5031221;28;20388;-71
2023/01/12 03:42:02;;;;;;;;;;;8.70;99.90;;;;;;5012546;28;19925;-71
2023/01/12 03:44:45;;;;;;;;;;;8.60;99.90;;;;;;5011671;28;20011;-71
2023/01/12 03:47:14;;;;;;;;;;;8.70;99.90;;;;;;5012609;28;19924;-71
2023/01/12 03:49:45;;;;;;;;;;;9.60;99.90;;;;;;5031100;28;19925;-71
2023/01/12 03:52:11;;;;;;;;;;;8.80;99.90;;;;;;5034118;28;19917;-71
2023/01/12 03:54:38;;;;;;;;;;;9.60;99.90;;;;;;5033929;28;19967;-71
2023/01/12 03:57:05;;;;;;;;;;;8.50;99.90;;;;;;5017253;28;19979;-71
2023/01/12 03:59:32;;;;;;;;;;;8.60;99.90;;;;;;5015926;28;19928;-71
2023/01/12 04:01:58;;;;;;;;;;;8.60;99.90;;;;;;5015756;28;19921;-71
2023/01/12 04:04:23;;;;;;;;;;;8.60;99.90;;;;;;5016830;28;19921;-71
2023/01/12 04:06:49;;;;;;;;;;;8.60;99.90;;;;;;5016876;28;20270;-71
2023/01/12 04:09:14;;;;;;;;;;;8.80;99.90;;;;;;5015967;28;19921;-71
2023/01/12 04:14:24;;;;;;;;;;;8.60;99.90;;;;;;5013922;28;19921;-70
2023/01/12 04:16:49;;;;;;;;;;;8.40;99.90;;;;;;5015832;28;19925;-71
2023/01/12 04:19:15;;;;;;;;;;;8.50;99.90;;;;;;5016174;28;19972;-71
2023/01/12 04:24:24;;;;;;;;;;;9.40;99.90;;;;;;5014096;28;20416;-71
2023/01/12 04:26:53;;;;;;;;;;;9.40;99.90;;;;;;5034353;28;20016;-71
2023/01/12 04:29:18;;;;;;;;;;;8.20;99.90;;;;;;5031977;28;19921;-70
2023/01/12 04:31:44;;;;;;;;;;;8.40;99.90;;;;;;5016320;28;20008;-70
2023/01/12 04:34:10;;;;;;;;;;;8.20;99.90;;;;;;5033972;28;19932;-70
2023/01/12 04:36:36;;;;;;;;;;;9.20;99.90;;;;;;5032947;28;19920;-70
2023/01/12 04:39:01;;;;;;;;;;;9.50;99.90;;;;;;5033313;28;19924;-71
2023/01/12 04:41:27;;;;;;;;;;;8.20;99.90;;;;;;5015006;28;19932;-71
2023/01/12 04:43:52;;;;;;;;;;;8.60;99.90;;;;;;5012619;28;19921;-73
2023/01/12 04:46:18;;;;;;;;;;;9.20;99.90;;;;;;5015544;28;19940;-74
2023/01/12 04:48:44;;;;;;;;;;;8.30;99.90;;;;;;5016182;28;19921;-75
2023/01/12 04:51:10;;;;;;;;;;;8.30;99.90;;;;;;5015553;28;19932;-73
2023/01/12 04:53:38;;;;;;;;;;;8.50;99.90;;;;;;5028927;28;19917;-72
2023/01/12 04:56:05;;;;;;;;;;;8.20;99.90;;;;;;5033725;28;20015;-73
2023/01/12 04:58:31;;;;;;;;;;;8.40;99.90;;;;;;5032497;28;19920;-74
2023/01/12 05:00:56;;;;;;;;;;;9.50;99.90;;;;;;5032800;28;19921;-74
2023/01/12 05:03:22;;;;;;;;;;;9.30;99.90;;;;;;5015350;28;19921;-71
2023/01/12 05:05:48;;;;;;;;;;;9.70;99.90;;;;;;5032341;28;20007;-73
2023/01/12 05:10:58;;;;;;;;;;;8.30;99.90;;;;;;5013954;28;20285;-72
2023/01/12 05:13:25;;;;;;;;;;;8.40;99.90;;;;;;5012833;28;20059;-72
2023/01/12 05:15:50;;;;;;;;;;;9.30;99.90;;;;;;5015516;28;19925;-74
2023/01/12 05:18:16;;;;;;;;;;;9.10;99.90;;;;;;5014559;28;20284;-74
2023/01/12 05:20:41;;;;;;;;;;;9.10;99.90;;;;;;5032877;28;19925;-73
2023/01/12 05:23:07;;;;;;;;;;;8.60;99.90;;;;;;5032997;28;19983;-73
2023/01/12 05:25:32;;;;;;;;;;;8.40;99.90;;;;;;5013685;28;20427;-72
2023/01/12 05:27:58;;;;;;;;;;;8.40;99.90;;;;;;5014731;28;20792;-72
2023/01/12 05:30:27;;;;;;;;;;;9.20;99.90;;;;;;5013335;28;20408;-76
2023/01/12 05:32:53;;;;;;;;;;;8.40;99.90;;;;;;5030991;28;19921;-71
2023/01/12 05:35:18;;;;;;;;;;;8.60;99.90;;;;;;5014185;28;20031;-71
2023/01/12 05:37:44;;;;;;;;;;;8.80;99.90;;;;;;5032369;28;19975;-70
2023/01/12 05:40:10;;;;;;;;;;;8.30;99.90;;;;;;5013960;28;19924;-73
2023/01/12 05:45:19;;;;;;;;;;;8.40;99.90;;;;;;5013989;28;19951;-75
2023/01/12 05:47:45;;;;;;;;;;;8.40;99.90;;;;;;5014059;28;19949;-75
2023/01/12 05:50:10;;;;;;;;;;;8.40;99.90;;;;;;5014930;28;19974;-77
2023/01/12 05:52:36;;;;;;;;;;;8.50;99.90;;;;;;5031451;28;20024;-83
2023/01/12 05:55:02;;;;;;;;;;;8.30;99.90;;;;;;5013532;28;19975;-78
2023/01/12 05:57:30;;;;;;;;;;;10.50;99.90;;;;;;5032594;28;19925;-77
2023/01/12 05:59:56;;;;;;;;;;;9.00;99.90;;;;;;5013888;28;20380;-72
2023/01/12 06:02:21;;;;;;;;;;;8.50;99.90;;;;;;5030777;28;20288;-73
2023/01/12 06:04:47;;;;;;;;;;;8.60;99.90;;;;;;5031887;28;19955;-72
2023/01/12 06:07:13;;;;;;;;;;;8.60;99.90;;;;;;5032681;28;19990;-72
2023/01/12 06:09:39;;;;;;;;;;;8.70;99.90;;;;;;5014029;28;19928;-72
2023/01/12 06:14:49;;;;;;;;;;;8.90;99.90;;;;;;5030694;28;20369;-72
2023/01/12 06:17:14;;;;;;;;;;;9.30;99.90;;;;;;5014336;28;19928;-78
2023/01/12 06:19:40;;;;;;;;;;;9.10;99.90;;;;;;5032089;28;19924;-71
2023/01/12 06:22:06;;;;;;;;;;;9.30;99.90;;;;;;5013012;28;20401;-71
2023/01/12 06:24:31;;;;;;;;;;;9.90;99.90;;;;;;5013228;28;20385;-70
2023/01/12 06:26:57;;;;;;;;;;;9.40;99.90;;;;;;5032029;28;19947;-70
2023/01/12 06:29:23;;;;;;;;;;;9.50;99.90;;;;;;5030997;28;20266;-70
2023/01/12 06:31:48;;;;;;;;;;;9.50;99.90;;;;;;5030579;28;19920;-70
2023/01/12 06:34:14;;;;;;;;;;;9.60;99.90;;;;;;5029253;28;20369;-70
2023/01/12 06:36:39;;;;;;;;;;;9.80;99.90;;;;;;5029270;28;19928;-70
2023/01/12 06:39:05;;;;;;;;;;;9.50;99.90;;;;;;5011966;28;20392;-70
2023/01/12 06:44:16;;;;;;;;;;;9.80;99.90;;;;;;5029357;28;19921;-70
2023/01/12 06:46:41;;;;;;;;;;;9.50;99.90;;;;;;5030657;28;19932;-70
2023/01/12 06:49:07;;;;;;;;;;;9.60;99.90;;;;;;5031916;28;19921;-71
2023/01/12 06:51:32;;;;;;;;;;;9.70;99.90;;;;;;5030601;28;20379;-70
2023/01/12 06:53:58;;;;;;;;;;;10.00;99.90;;;;;;5014294;28;20384;-70
2023/01/12 06:56:23;;;;;;;;;;;9.80;99.90;;;;;;5031537;28;19921;-70
2023/01/12 06:58:49;;;;;;;;;;;9.80;99.90;;;;;;5030826;28;19967;-71
2023/01/12 07:01:15;;;;;;;;;;;9.80;99.90;;;;;;5031472;28;19921;-71
2023/01/12 07:03:41;;;;;;;;;;;9.70;99.90;;;;;;5012715;28;19924;-71
2023/01/12 07:06:06;;;;;;;;;;;9.80;99.90;;;;;;5025755;28;19921;-71
2023/01/12 07:08:32;;;;;;;;;;;9.90;99.90;;;;;;5029968;28;20372;-70
2023/01/12 07:11:06;;;;;;;;;;;9.90;99.90;;;;;;5029790;28;19920;-71
2023/01/12 07:13:32;;;;;;;;;;;9.90;99.90;;;;;;5030026;28;20394;-71
2023/01/12 07:15:58;;;;;;;;;;;9.90;99.90;;;;;;5030480;28;19921;-70
2023/01/12 07:18:24;;;;;;;;;;;9.90;99.90;;;;;;5029132;28;20020;-70
2023/01/12 07:20:50;;;;;;;;;;;10.00;99.90;;;;;;5031605;28;20007;-72
2023/01/12 07:23:16;;;;;;;;;;;9.90;99.90;;;;;;5031060;28;19928;-70
2023/01/12 07:25:41;;;;;;;;;;;9.90;99.90;;;;;;5030204;28;19921;-71
2023/01/12 07:28:07;;;;;;;;;;;10.00;99.90;;;;;;5035292;28;19928;-71
2023/01/12 07:30:32;;;;;;;;;;;10.10;99.90;;;;;;5034970;28;20296;-70
2023/01/12 07:33:09;;;;;;;;;;;10.00;99.90;;;;;;5033180;28;19925;-70
2023/01/12 07:35:34;;;;;;;;;;;10.00;99.90;;;;;;5033537;28;19925;-70
2023/01/12 07:38:00;;;;;;;;;;;10.10;99.90;;;;;;5033822;28;19925;-70
2023/01/12 07:40:25;;;;;;;;;;;10.00;99.90;;;;;;5031718;28;19920;-70
2023/01/12 07:42:58;;;;;;;;;;;10.60;99.90;;;;;;5033247;28;20020;-70
2023/01/12 07:45:23;;;;;;;;;;;10.00;99.90;;;;;;5033120;28;19921;-70
2023/01/12 07:47:53;;;;;;;;;;;10.00;99.90;;;;;;5032604;28;19928;-71
2023/01/12 07:50:18;;;;;;;;;;;9.90;99.90;;;;;;5033889;28;19928;-70
2023/01/12 07:52:44;;;;;;;;;;;10.30;99.90;;;;;;5034557;28;19972;-69
2023/01/12 07:55:09;;;;;;;;;;;9.90;99.90;;;;;;5033236;28;19971;-70
2023/01/12 07:57:36;;;;;;;;;;;9.90;99.90;;;;;;5034430;28;20059;-70
2023/01/12 08:00:04;;;;;;;;;;;10.40;99.90;;;;;;5034061;28;20393;-70
2023/01/12 08:02:30;;;;;;;;;;;10.00;99.90;;;;;;5032851;28;20043;-70
2023/01/12 08:04:59;;;;;;;;;;;10.10;99.90;;;;;;5033141;28;20395;-70
2023/01/12 08:07:25;;;;;;;;;;;9.80;99.90;;;;;;5031781;28;20378;-70
2023/01/12 08:09:51;;;;;;;;;;;10.00;99.90;;;;;;5034904;28;19956;-70
2023/01/12 08:12:16;;;;;;;;;;;10.10;99.90;;;;;;5033880;28;20401;-70
2023/01/12 08:14:42;;;;;;;;;;;10.10;99.90;;;;;;5033412;28;19999;-70
2023/01/12 08:17:16;;;;;;;;;;;10.20;99.90;;;;;;5034509;28;19975;-70
2023/01/12 08:19:45;;;;;;;;;;;10.10;99.90;;;;;;5034204;28;20297;-70
2023/01/12 08:22:14;;;;;;;;;;;10.20;99.90;;;;;;5032051;28;20020;-70
2023/01/12 08:24:43;;;;;;;;;;;10.20;99.90;;;;;;5032981;28;19928;-70
2023/01/12 08:27:09;;;;;;;;;;;10.20;99.90;;;;;;5033310;28;20377;-71
2023/01/12 08:29:44;;;;;;;;;;;10.40;99.90;;;;;;5032196;28;19928;-71
2023/01/12 08:32:10;;;;;;;;;;;10.30;99.90;;;;;;5033088;28;19921;-70
2023/01/12 08:34:37;;;;;;;;;;;10.20;99.90;;;;;;5032561;28;20434;-70
2023/01/12 08:37:04;;;;;;;;;;;10.30;99.90;;;;;;5033133;28;19921;-69
2023/01/12 08:39:30;;;;;;;;;;;10.50;99.90;;;;;;5032799;28;19925;-70
2023/01/12 08:41:58;;;;;;;;;;;10.50;99.90;;;;;;5032778;28;19920;-70
2023/01/12 08:44:28;;;;;;;;;;;10.20;99.90;;;;;;5031150;28;19925;-70
2023/01/12 08:46:53;;;;;;;;;;;10.20;99.90;;;;;;5032756;28;20434;-70
2023/01/12 08:49:20;;;;;;;;;;;10.10;99.90;;;;;;5031132;28;19925;-70
2023/01/12 08:51:46;;;;;;;;;;;10.50;99.90;;;;;;5032420;28;19924;-73
2023/01/12 08:54:12;;;;;;;;;;;10.30;99.90;;;;;;5032520;28;19921;-70
2023/01/12 08:56:38;;;;;;;;;;;10.30;99.90;;;;;;5032730;28;19947;-70
2023/01/12 08:59:03;;;;;;;;;;;10.40;99.90;;;;;;5031560;28;19917;-70
2023/01/12 09:01:29;;;;;;;;;;;10.40;99.90;;;;;;5033087;28;19948;-70
2023/01/12 09:03:55;;;;;;;;;;;10.90;99.90;;;;;;5031398;28;19928;-71
2023/01/12 09:06:25;;;;;;;;;;;10.40;99.90;;;;;;5032902;28;19952;-70
2023/01/12 09:08:58;;;;;;;;;;;10.30;99.90;;;;;;5015441;28;20401;-70
2023/01/12 09:11:24;;;;;;;;;;;10.40;99.90;;;;;;5010528;28;19917;-70
2023/01/12 09:13:49;;;;;;;;;;;10.30;99.90;;;;;;5015804;28;19921;-70
2023/01/12 09:16:16;;;;;;;;;;;10.70;99.90;;;;;;5015053;28;20339;-70
2023/01/12 09:18:42;;;;;;;;;;;10.80;99.90;;;;;;5014157;28;19924;-70
2023/01/12 09:21:09;;;;;;;;;;;10.30;99.90;;;;;;5033134;28;19921;-70
2023/01/12 09:23:35;;;;;;;;;;;10.60;99.90;;;;;;5033042;28;19921;-70
2023/01/12 09:26:01;;;;;;;;;;;10.50;99.90;;;;;;5014295;28;19932;-70
2023/01/12 09:28:27;;;;;;;;;;;10.40;99.90;;;;;;5014988;28;20373;-71
2023/01/12 09:30:52;;;;;;;;;;;10.80;99.90;;;;;;5014965;28;19928;-70
2023/01/12 09:33:21;;;;;;;;;;;10.50;99.90;;;;;;5031790;28;19928;-70
2023/01/12 09:35:46;;;;;;;;;;;10.30;99.90;;;;;;5014787;28;20361;-71
2023/01/12 09:38:12;;;;;;;;;;;10.40;99.90;;;;;;5015275;28;19921;-71
2023/01/12 09:40:41;;;;;;;;;;;10.40;99.90;;;;;;5031717;28;19921;-70
2023/01/12 09:48:37;;;;;;;;;;;10.30;99.90;;;;;;5031289;28;19921;-69
2023/01/12 09:51:06;;;;;;;;;;;10.40;99.90;;;;;;5032484;28;19928;-70
2023/01/12 09:53:37;;;;;;;;;;;10.40;99.90;;;;;;5031502;28;19920;-71
2023/01/12 09:56:12;;;;;;;;;;;10.50;99.90;;;;;;5014971;28;19967;-69
2023/01/12 09:58:40;;;;;;;;;;;12.60;99.90;;;;;;5014726;28;20323;-70
2023/01/12 10:01:08;;;;;;;;;;;10.50;99.90;;;;;;5013839;28;19925;-70
2023/01/12 10:03:37;;;;;;;;;;;10.50;99.90;;;;;;5032135;28;19971;-70
2023/01/12 10:06:03;;;;;;;;;;;10.50;99.90;;;;;;5025339;28;19920;-70
2023/01/12 10:08:36;;;;;;;;;;;10.50;99.90;;;;;;5029570;28;20280;-71
2023/01/12 10:11:22;;;;;;;;;;;10.50;99.90;;;;;;5031869;28;19920;-71
2023/01/12 10:14:06;;;;;;;;;;;10.50;99.90;;;;;;5023403;28;19927;-71
2023/01/12 10:16:38;;;;;;;;;;;10.50;99.90;;;;;;5030609;28;19921;-71
2023/01/12 10:19:10;;;;;;;;;;;10.60;99.90;;;;;;5030396;28;20418;-71
2023/01/12 10:21:35;;;;;;;;;;;10.60;99.90;;;;;;5029724;28;19944;-71
2023/01/12 10:24:01;;;;;;;;;;;10.60;99.90;;;;;;5032191;28;19983;-71
2023/01/12 10:26:32;;;;;;;;;;;10.50;99.90;;;;;;5031904;28;19931;-71
2023/01/12 10:29:01;;;;;;;;;;;10.50;99.90;;;;;;5030108;28;20288;-71
2023/01/12 10:31:26;;;;;;;;;;;10.50;99.90;;;;;;5031831;28;19967;-71
2023/01/12 10:34:09;;;;;;;;;;;10.50;99.90;;;;;;5032250;28;20329;-71
2023/01/12 10:36:41;;;;;;;;;;;10.50;99.90;;;;;;5029791;28;20434;-70
2023/01/12 10:39:21;;;;;;;;;;;10.40;99.90;;;;;;5031477;28;20339;-70
2023/01/12 10:42:06;;;;;;;;;;;10.50;99.90;;;;;;5028211;28;19971;-70
2023/01/12 10:44:32;;;;;;;;;;;10.40;99.90;;;;;;5031800;28;20118;-69
2023/01/12 10:47:08;;;;;;;;;;;10.40;99.90;;;;;;5030974;28;20444;-69
2023/01/12 10:49:33;;;;;;;;;;;10.20;99.90;;;;;;5030528;28;20015;-70
2023/01/12 10:52:00;;;;;;;;;;;10.40;99.90;;;;;;5030039;28;20023;-69
2023/01/12 10:54:31;;;;;;;;;;;10.40;99.90;;;;;;5030533;28;19944;-70
2023/01/12 10:56:59;;;;;;;;;;;10.50;99.90;;;;;;5031139;28;19921;-69
2023/01/12 10:59:28;;;;;;;;;;;10.80;99.90;;;;;;5031056;28;19925;-70
2023/01/12 11:02:10;;;;;;;;;;;10.60;99.90;;;;;;5035821;28;19967;-70
2023/01/12 11:04:38;;;;;;;;;;;10.60;99.90;;;;;;5030547;28;19943;-70
2023/01/12 11:07:14;;;;;;;;;;;10.60;99.90;;;;;;5031930;28;20300;-69
2023/01/12 11:09:41;;;;;;;;;;;10.70;99.90;;;;;;5032286;28;19921;-70
2023/01/12 11:12:19;;;;;;;;;;;10.70;99.90;;;;;;5017060;28;19921;-70
2023/01/12 11:14:56;;;;;;;;;;;10.80;99.90;;;;;;5015225;28;19927;-70
2023/01/12 11:17:21;;;;;;;;;;;11.00;99.90;;;;;;5016761;28;19975;-70
2023/01/12 11:19:47;;;;;;;;;;;10.90;99.90;;;;;;5034554;28;20331;-69
2023/01/12 11:22:24;;;;;;;;;;;10.90;99.90;;;;;;5015290;28;19921;-70
2023/01/12 11:25:16;;;;;;;;;;;11.10;99.90;;;;;;5016885;28;19983;-72
2023/01/12 11:27:57;;;;;;;;;;;11.60;99.90;;;;;;5032592;28;20360;-72
2023/01/12 11:30:24;;;;;;;;;;;12.20;99.90;;;;;;5016699;28;19928;-73
2023/01/12 11:32:58;;;;;;;;;;;12.70;99.90;;;;;;5016620;28;19921;-73
2023/01/12 11:35:27;;;;;;;;;;;13.20;99.90;;;;;;5034970;28;20274;-74
2023/01/12 11:37:54;;;;;;;;;;;13.20;99.90;;;;;;5034757;28;20316;-71
2023/01/12 11:40:24;;;;;;;;;;;13.70;99.90;;;;;;5016424;28;20354;-70
2023/01/12 11:45:44;;;;;;;;;;;12.80;99.90;;;;;;5030857;28;20280;-71
2023/01/12 11:48:31;;;;;;;;;;;12.30;99.90;;;;;;5017249;28;19928;-71
2023/01/12 11:50:57;;;;;;;;;;;12.00;99.90;;;;;;5030847;28;19921;-71
2023/01/12 11:53:24;;;;;;;;;;;11.70;99.90;;;;;;5034069;28;19970;-71
2023/01/12 11:56:02;;;;;;;;;;;11.60;99.90;;;;;;5034893;28;19921;-71
2023/01/12 11:58:30;;;;;;;;;;;11.50;99.90;;;;;;5030879;28;19928;-71
2023/01/12 12:01:09;;;;;;;;;;;11.50;99.90;;;;;;5029951;28;19925;-71
2023/01/12 12:03:45;;;;;;;;;;;11.30;99.90;;;;;;5031751;28;20019;-71
2023/01/12 12:06:29;;;;;;;;;;;11.30;99.90;;;;;;5032074;28;19970;-71
2023/01/12 12:09:01;;;;;;;;;;;11.30;99.90;;;;;;5013126;28;20005;-71
2023/01/12 12:11:32;;;;;;;;;;;11.10;99.90;;;;;;5012167;28;19921;-71
2023/01/12 12:14:04;;;;;;;;;;;11.10;99.90;;;;;;5012844;28;20743;-71
2023/01/12 12:16:38;;;;;;;;;;;11.20;99.90;;;;;;5034149;28;19967;-71
2023/01/12 12:19:22;;;;;;;;;;;11.20;99.90;;;;;;5016764;28;19921;-71
2023/01/12 12:22:10;;;;;;;;;;;11.10;99.90;;;;;;5015663;28;19968;-71
2023/01/12 12:24:45;;;;;;;;;;;11.10;99.90;;;;;;5014273;28;20273;-71
2023/01/12 12:27:17;;;;;;;;;;;11.20;99.90;;;;;;5033896;28;20344;-71
2023/01/12 12:29:55;;;;;;;;;;;11.10;99.90;;;;;;5033848;28;20004;-71
2023/01/12 12:32:30;;;;;;;;;;;11.20;99.90;;;;;;5030051;28;20379;-71
2023/01/12 12:35:14;;;;;;;;;;;11.10;99.90;;;;;;5030498;28;20003;-71
2023/01/12 12:37:58;;;;;;;;;;;11.10;99.90;;;;;;5033763;28;20380;-71
2023/01/12 12:40:24;;;;;;;;;;;11.10;99.90;;;;;;5012358;28;19967;-71
2023/01/12 12:46:18;;;;;;;;;;;11.10;99.90;;;;;;5012031;28;19921;-71
2023/01/12 12:48:46;;;;;;;;;;;11.20;99.90;;;;;;5033172;28;19921;-71
2023/01/12 12:51:12;;;;;;;;;;;11.20;99.90;;;;;;5015495;28;19956;-71
2023/01/12 12:53:42;;;;;;;;;;;11.10;99.90;;;;;;5033806;28;20328;-70
2023/01/12 12:56:09;;;;;;;;;;;11.10;99.90;;;;;;5033187;28;19920;-71
2023/01/12 12:58:42;;;;;;;;;;;11.40;99.90;;;;;;5033594;28;19923;-71
2023/01/12 13:01:20;;;;;;;;;;;11.10;99.90;;;;;;5033666;28;19921;-71
2023/01/12 13:03:47;;;;;;;;;;;11.00;99.90;;;;;;5011467;28;19921;-72
2023/01/12 13:06:19;;;;;;;;;;;11.50;99.90;;;;;;5027999;28;19951;-71
2023/01/12 13:08:46;;;;;;;;;;;11.10;99.90;;;;;;5028611;28;20024;-74
2023/01/12 13:11:12;;;;;;;;;;;11.10;99.90;;;;;;5031494;28;19988;-75
2023/01/12 13:13:55;;;;;;;;;;;11.00;99.90;;;;;;5032668;28;19925;-71
2023/01/12 13:16:20;;;;;;;;;;;11.10;99.90;;;;;;5028666;28;19928;-70
2023/01/12 13:18:49;;;;;;;;;;;11.00;99.90;;;;;;5031346;28;19970;-70
2023/01/12 13:21:29;;;;;;;;;;;11.00;99.90;;;;;;5032624;28;19917;-71
2023/01/12 13:24:07;;;;;;;;;;;11.00;99.90;;;;;;5029145;28;20008;-69
2023/01/12 13:26:33;;;;;;;;;;;10.90;99.90;;;;;;5031644;28;19921;-71
2023/01/12 13:29:17;;;;;;;;;;;10.90;99.90;;;;;;5033460;28;19979;-71
2023/01/12 13:31:43;;;;;;;;;;;10.90;99.90;;;;;;5028519;28;19924;-71
2023/01/12 13:34:29;;;;;;;;;;;11.00;99.90;;;;;;5033493;28;19921;-71
2023/01/12 13:37:10;;;;;;;;;;;11.00;99.90;;;;;;5020925;28;19927;-71
2023/01/12 13:39:38;;;;;;;;;;;11.00;99.90;;;;;;5030770;28;19921;-71
2023/01/12 13:44:50;;;;;;;;;;;11.00;99.90;;;;;;5028632;28;19921;-71
2023/01/12 13:47:20;;;;;;;;;;;10.90;99.90;;;;;;5032456;28;19943;-71
2023/01/12 13:49:47;;;;;;;;;;;11.10;99.90;;;;;;5031824;28;19970;-71
2023/01/12 13:52:33;;;;;;;;;;;11.00;99.90;;;;;;5031189;28;19925;-71
2023/01/12 13:54:58;;;;;;;;;;;10.60;99.90;;;;;;5032660;28;19925;-70
2023/01/12 13:57:25;;;;;;;;;;;11.00;99.90;;;;;;5032054;28;20011;-70
2023/01/12 14:00:07;;;;;;;;;;;11.10;99.90;;;;;;5031824;28;19928;-71
2023/01/12 14:02:37;;;;;;;;;;;11.00;99.90;;;;;;5030672;28;20463;-70
2023/01/12 14:05:07;;;;;;;;;;;10.90;99.90;;;;;;5032535;28;20293;-71
2023/01/12 14:07:42;;;;;;;;;;;11.00;99.90;;;;;;5030736;28;20456;-71
2023/01/12 14:10:27;;;;;;;;;;;10.90;99.90;;;;;;5014412;28;19931;-70
2023/01/12 14:12:59;;;;;;;;;;;10.90;99.90;;;;;;5013379;28;19995;-73
2023/01/12 14:18:43;;;;;;;;;;;10.80;99.90;;;;;;5010744;28;19925;-74
2023/01/12 14:21:42;;;;;;;;;;;10.70;99.90;;;;;;5010238;28;19921;-75
2023/01/12 14:24:16;;;;;;;;;;;10.70;99.90;;;;;;5009974;28;19921;-75
2023/01/12 14:26:42;;;;;;;;;;;10.70;99.90;;;;;;5031714;28;20097;-75
2023/01/12 14:29:11;;;;;;;;;;;10.60;99.90;;;;;;5013413;28;19972;-77
2023/01/12 14:31:38;;;;;;;;;;;10.80;99.90;;;;;;5014220;28;19928;-75
2023/01/12 14:34:04;;;;;;;;;;;11.10;99.90;;;;;;5030955;28;19921;-78
2023/01/12 14:36:29;;;;;;;;;;;10.50;99.90;;;;;;5013974;28;19928;-75
2023/01/12 14:38:57;;;;;;;;;;;10.40;99.90;;;;;;5013390;28;20336;-74
2023/01/12 14:47:05;;;;;;;;;;;10.50;99.90;;;;;;5037830;28;19921;-73
2023/01/12 14:49:32;;;;;;;;;;;10.50;99.90;;;;;;5012678;28;19925;-73
2023/01/12 14:51:58;;;;;;;;;;;10.50;99.90;;;;;;5030835;28;20428;-72
2023/01/12 14:54:28;;;;;;;;;;;10.40;99.90;;;;;;5030213;28;20015;-73
2023/01/12 14:57:00;;;;;;;;;;;10.50;99.90;;;;;;5030428;28;19944;-72
2023/01/12 14:59:28;;;;;;;;;;;10.50;99.90;;;;;;5009097;28;20009;-72
2023/01/12 15:02:07;;;;;;;;;;;10.50;99.90;;;;;;5013061;28;19974;-72
2023/01/12 15:04:32;;;;;;;;;;;10.50;99.90;;;;;;5010210;28;19921;-71
2023/01/12 15:06:59;;;;;;;;;;;10.50;99.90;;;;;;5031122;28;19925;-71
2023/01/12 15:09:29;;;;;;;;;;;10.60;99.90;;;;;;5012271;28;20360;-72
2023/01/12 15:11:55;;;;;;;;;;;10.50;99.90;;;;;;5009516;28;19955;-73
2023/01/12 15:14:25;;;;;;;;;;;10.50;99.90;;;;;;5012533;28;20361;-72
2023/01/12 15:27:56;;;;;;;;;;;10.50;99.90;;;;;;5009557;28;19921;-74
2023/01/12 15:30:21;;;;;;;;;;;10.50;99.90;;;;;;5012229;28;20027;-73
2023/01/12 15:32:47;;;;;;;;;;;10.50;99.90;;;;;;5030533;28;19928;-74
2023/01/12 15:35:13;;;;;;;;;;;10.40;99.90;;;;;;5012786;28;19917;-72
2023/01/12 15:37:39;;;;;;;;;;;10.50;99.90;;;;;;5029914;28;19952;-71